createdAt,value
2018-06-09T00:02:11.645Z,78.00
2018-06-09T00:04:40.430Z,78.40
2018-06-09T00:07:10.260Z,78.40
2018-06-09T00:09:39.054Z,77.90
2018-06-09T00:12:08.206Z,78.10
2018-06-09T00:14:36.956Z,78.20
2018-06-09T00:17:05.934Z,77.80
2018-06-09T00:19:34.755Z,78.00
2018-06-09T00:22:04.621Z,78.00
2018-06-09T00:24:33.533Z,77.70
2018-06-09T00:27:04.831Z,77.70
2018-06-09T00:29:33.707Z,77.80
2018-06-09T00:32:02.468Z,77.80
2018-06-09T00:34:31.838Z,78.00
2018-06-09T00:37:00.755Z,78.30
2018-06-09T00:39:29.697Z,78.10
2018-06-09T00:41:58.452Z,78.50
2018-06-09T00:44:27.311Z,78.10
2018-06-09T00:46:59.261Z,78.30
2018-06-09T00:49:28.027Z,78.00
2018-06-09T00:51:56.856Z,77.90
2018-06-09T00:54:25.637Z,78.20
2018-06-09T00:57:06.341Z,78.30
2018-06-09T01:05:24.449Z,77.70
2018-06-09T01:07:53.962Z,77.10
2018-06-09T01:10:27.404Z,77.00
2018-06-09T01:12:57.256Z,77.20
2018-06-09T01:15:27.949Z,77.40
2018-06-09T01:17:57.498Z,77.30
2018-06-09T01:20:33.599Z,77.50
2018-06-09T01:23:05.777Z,77.60
2018-06-09T01:25:35.567Z,77.90
2018-06-09T01:28:06.472Z,77.90
2018-06-09T01:30:36.143Z,78.00
2018-06-09T01:33:07.982Z,77.70
2018-06-09T01:35:38.749Z,77.80
2018-06-09T01:38:08.987Z,78.30
2018-06-09T01:40:49.046Z,78.00
2018-06-09T01:43:24.937Z,78.00
2018-06-09T01:46:02.011Z,78.60
2018-06-09T01:48:32.190Z,78.40
2018-06-09T01:51:14.320Z,78.20
2018-06-09T01:53:48.326Z,78.50
2018-06-09T01:56:26.651Z,78.20
2018-06-09T01:59:00.694Z,78.20
2018-06-09T02:01:32.539Z,78.20
2018-06-09T02:04:04.072Z,78.00
2018-06-09T02:06:40.558Z,78.50
2018-06-09T02:09:12.856Z,78.60
2018-06-09T02:11:46.726Z,78.10
2018-06-09T02:14:18.687Z,78.60
2018-06-09T02:16:48.361Z,79.00
2018-06-09T02:19:24.173Z,78.80
2018-06-09T02:21:53.961Z,79.20
2018-06-09T02:24:35.018Z,79.40
2018-06-09T02:27:06.831Z,79.50
2018-06-09T02:29:36.437Z,79.20
2018-06-09T02:32:10.855Z,79.50
2018-06-09T02:34:41.215Z,79.30
2018-06-09T02:37:12.227Z,79.30
2018-06-09T02:39:43.238Z,79.60
2018-06-09T02:42:13.092Z,80.10
2018-06-09T02:44:44.861Z,79.80
2018-06-09T02:47:15.494Z,80.00
2018-06-09T02:49:46.317Z,80.40
2018-06-09T02:52:16.088Z,80.70
2018-06-09T02:54:50.813Z,80.70
2018-06-09T02:57:25.299Z,81.50
2018-06-09T02:59:59.078Z,81.70
2018-06-09T03:02:36.190Z,81.60
2018-06-09T03:05:05.956Z,81.70
2018-06-09T03:07:39.356Z,81.40
2018-06-09T03:10:11.690Z,81.90
2018-06-09T03:12:41.305Z,81.70
2018-06-09T03:15:10.760Z,82.40
2018-06-09T03:17:43.002Z,82.50
2018-06-09T03:20:13.767Z,82.70
2018-06-09T03:22:43.830Z,83.00
2018-06-09T03:25:15.818Z,83.20
2018-06-09T03:27:45.446Z,83.10
2018-06-09T03:30:16.276Z,83.50
2018-06-09T03:32:45.983Z,83.80
2018-06-09T03:35:21.016Z,84.10
2018-06-09T03:37:51.634Z,83.90
2018-06-09T03:40:27.080Z,84.00
2018-06-09T03:43:00.999Z,83.90
2018-06-09T03:45:33.089Z,83.80
2018-06-09T03:48:09.861Z,84.40
2018-06-09T03:50:48.860Z,83.90
2018-06-09T03:53:20.867Z,83.40
2018-06-09T03:55:54.903Z,83.70
2018-06-09T03:58:30.820Z,83.60
2018-06-09T04:01:06.983Z,83.50
2018-06-09T04:03:37.492Z,83.10
2018-06-09T04:06:08.676Z,83.10
2018-06-09T04:08:40.498Z,83.30
2018-06-09T04:11:25.768Z,83.30
2018-06-09T04:13:56.687Z,83.00
2018-06-09T04:16:27.498Z,83.10
2018-06-09T04:18:58.239Z,82.90
2018-06-09T04:21:30.893Z,83.00
2018-06-09T04:24:03.892Z,82.70
2018-06-09T04:26:39.072Z,82.60
2018-06-09T04:29:17.461Z,81.80
2018-06-09T04:31:49.743Z,81.20
2018-06-09T04:34:22.849Z,81.50
2018-06-09T04:36:54.648Z,80.20
2018-06-09T04:39:31.195Z,79.80
2018-06-09T04:42:08.448Z,79.90
2018-06-09T04:44:40.355Z,79.20
2018-06-09T04:47:10.946Z,78.60
2018-06-09T04:49:45.100Z,78.10
2018-06-09T04:52:15.437Z,78.50
2018-06-09T04:54:46.346Z,77.80
2018-06-09T04:57:17.159Z,77.20
2018-06-09T04:59:48.752Z,76.70
2018-06-09T05:02:25.825Z,77.20
2018-06-09T05:04:57.699Z,76.20
2018-06-09T05:07:29.713Z,76.80
2018-06-09T05:10:07.257Z,76.40
2018-06-09T05:12:39.760Z,75.90
2018-06-09T05:15:14.513Z,75.70
2018-06-09T05:17:48.888Z,75.90
2018-06-09T05:20:21.534Z,75.60
2018-06-09T05:25:24.964Z,75.80
2018-06-09T05:27:58.026Z,75.20
2018-06-09T05:30:32.091Z,75.20
2018-06-09T05:33:06.824Z,75.30
2018-06-09T05:35:41.412Z,74.40
2018-06-09T05:38:16.892Z,74.10
2018-06-09T05:40:49.638Z,73.90
2018-06-09T05:43:22.116Z,73.60
2018-06-09T05:45:53.647Z,73.90
2018-06-09T05:48:28.226Z,73.70
2018-06-09T05:51:00.021Z,73.10
2018-06-09T05:53:36.410Z,73.50
2018-06-09T05:56:07.371Z,72.90
2018-06-09T05:58:42.708Z,72.10
2018-06-09T06:01:18.290Z,72.20
2018-06-09T06:03:49.048Z,71.90
2018-06-09T06:06:23.559Z,71.40
2018-06-09T06:08:57.117Z,71.90
2018-06-09T06:11:42.652Z,71.40
2018-06-09T06:14:16.319Z,71.80
2018-06-09T06:16:47.349Z,71.60
2018-06-09T06:19:23.750Z,71.00
2018-06-09T06:21:54.894Z,71.50
2018-06-09T06:24:28.582Z,71.20
2018-06-09T06:27:10.453Z,71.10
2018-06-09T06:29:42.674Z,71.20
2018-06-09T06:32:13.900Z,71.10
2018-06-09T06:34:46.141Z,70.30
2018-06-09T06:37:17.972Z,70.20
2018-06-09T06:39:53.743Z,69.30
2018-06-09T06:42:24.868Z,67.90
2018-06-09T06:45:05.306Z,67.10
2018-06-09T06:47:38.269Z,66.80
2018-06-09T06:50:22.426Z,66.60
2018-06-09T06:52:54.436Z,65.70
2018-06-09T06:55:36.980Z,65.50
2018-06-09T06:58:09.664Z,65.30
2018-06-09T07:00:42.094Z,64.70
2018-06-09T07:03:14.405Z,64.60
2018-06-09T07:05:52.516Z,64.80
2018-06-09T07:08:27.207Z,64.70
2018-06-09T07:11:05.739Z,65.20
2018-06-09T07:13:48.063Z,64.20
2018-06-09T07:16:26.098Z,64.10
2018-06-09T07:19:07.794Z,64.00
2018-06-09T07:21:48.324Z,63.40
2018-06-09T07:24:19.983Z,62.90
2018-06-09T07:26:54.057Z,62.80
2018-06-09T07:29:26.286Z,62.90
2018-06-09T07:32:07.026Z,62.00
2018-06-09T07:34:39.980Z,61.50
2018-06-09T07:37:18.587Z,61.30
2018-06-09T07:42:43.453Z,60.10
2018-06-09T07:45:17.493Z,60.40
2018-06-09T07:47:54.050Z,58.70
2018-06-09T07:50:27.531Z,58.80
2018-06-09T07:53:17.255Z,57.90
2018-06-09T07:56:03.344Z,58.10
2018-06-09T07:58:50.918Z,58.00
2018-06-09T08:01:32.919Z,57.90
2018-06-09T08:04:12.855Z,57.30
2018-06-09T08:06:47.585Z,57.10
2018-06-09T08:09:39.432Z,57.20
2018-06-09T08:12:15.431Z,57.30
2018-06-09T08:14:53.856Z,57.00
2018-06-09T08:17:33.922Z,57.30
2018-06-09T08:23:18.645Z,57.20
2018-06-09T08:25:53.966Z,56.60
2018-06-09T08:28:44.119Z,54.90
2018-06-09T08:31:27.880Z,53.90
2018-06-09T08:34:11.239Z,53.60
2018-06-09T08:36:50.520Z,52.90
2018-06-09T08:39:34.967Z,52.30
2018-06-09T08:42:14.532Z,51.60
2018-06-09T08:44:50.523Z,51.10
2018-06-09T08:47:30.131Z,50.80
2018-06-09T08:50:04.288Z,50.00
2018-06-09T08:55:35.905Z,51.20
2018-06-09T08:58:14.064Z,52.20
2018-06-09T09:00:52.113Z,52.80
2018-06-09T09:03:35.644Z,54.00
2018-06-09T09:06:12.227Z,53.90
2018-06-09T09:08:48.635Z,53.80
2018-06-09T09:11:25.038Z,52.60
2018-06-09T09:14:04.063Z,51.50
2018-06-09T09:16:39.620Z,49.80
2018-06-09T09:19:20.425Z,48.90
2018-06-09T09:22:03.524Z,47.00
2018-06-09T09:24:46.358Z,46.40
2018-06-09T09:27:26.328Z,45.10
2018-06-09T09:30:07.705Z,44.90
2018-06-09T09:35:43.397Z,45.10
2018-06-09T09:38:30.353Z,45.60
2018-06-09T09:41:09.053Z,43.10
2018-06-09T09:44:00.678Z,41.20
2018-06-09T09:52:26.598Z,41.90
2018-06-09T10:00:47.488Z,38.10
2018-06-09T10:03:37.392Z,35.90
2018-06-09T10:06:22.151Z,37.20
2018-06-09T10:09:02.995Z,37.70
2018-06-09T10:11:40.990Z,38.20
2018-06-09T10:14:23.255Z,37.40
2018-06-09T10:17:03.860Z,38.00
2018-06-09T10:19:39.678Z,39.10
2018-06-09T10:22:15.012Z,39.80
2018-06-09T10:27:42.698Z,41.00
2018-06-09T10:30:21.045Z,39.50
2018-06-09T10:33:08.538Z,38.20
2018-06-09T10:35:51.870Z,35.90
2018-06-09T10:38:39.912Z,34.50
2018-06-09T10:41:16.508Z,34.20
2018-06-09T10:52:41.054Z,33.70
2018-06-09T10:55:26.232Z,33.10
2018-06-09T10:58:09.892Z,32.80
2018-06-09T11:03:33.593Z,32.80
2018-06-09T11:06:16.765Z,34.00
2018-06-09T11:08:59.798Z,35.10
2018-06-09T11:11:44.495Z,36.00
2018-06-09T11:14:26.905Z,36.70
2018-06-09T11:17:11.492Z,37.10
2018-06-09T11:19:52.919Z,37.30
2018-06-09T11:22:25.984Z,39.00
2018-06-09T11:25:09.467Z,39.70
2018-06-09T11:27:50.399Z,40.40
2018-06-09T11:33:15.848Z,43.80
2018-06-09T11:36:06.957Z,44.50
2018-06-09T11:38:56.502Z,44.90
2018-06-09T11:41:50.387Z,44.40
2018-06-09T11:44:38.541Z,45.00
2018-06-09T11:50:15.514Z,45.10
2018-06-09T11:55:46.184Z,45.50
2018-06-09T12:06:53.520Z,46.00
2018-06-09T12:09:45.787Z,45.20
2018-06-09T12:12:21.616Z,44.90
2018-06-09T12:15:03.613Z,45.10
2018-06-09T12:17:42.854Z,47.10
2018-06-09T12:20:26.173Z,47.30
2018-06-09T12:23:00.365Z,46.50
2018-06-09T12:25:37.886Z,47.40
2018-06-09T12:28:18.436Z,46.90
2018-06-09T12:31:04.454Z,48.90
2018-06-09T12:33:45.515Z,49.50
2018-06-09T12:36:26.988Z,48.20
2018-06-09T12:38:59.520Z,47.30
2018-06-09T12:41:46.621Z,47.10
2018-06-09T12:44:26.625Z,47.90
2018-06-09T12:47:16.099Z,47.80
2018-06-09T12:52:38.056Z,48.30
2018-06-09T12:55:31.263Z,47.80
2018-06-09T12:58:13.862Z,47.70
2018-06-09T13:00:52.331Z,47.40
2018-06-09T13:03:23.149Z,47.40
2018-06-09T13:06:00.921Z,47.90
2018-06-09T13:08:39.600Z,48.30
2018-06-09T13:11:34.857Z,48.40
2018-06-09T13:14:19.300Z,48.90
2018-06-09T13:17:02.734Z,49.70
2018-06-09T13:19:42.298Z,49.50
2018-06-09T13:22:26.856Z,49.60
2018-06-09T13:30:49.035Z,49.10
2018-06-09T13:33:36.875Z,49.40
2018-06-09T13:36:21.451Z,49.80
2018-06-09T13:41:47.396Z,49.70
2018-06-09T13:44:25.601Z,49.40
2018-06-09T13:47:08.987Z,49.40
2018-06-09T13:49:50.157Z,50.20
2018-06-09T13:52:27.983Z,50.10
2018-06-09T13:55:10.780Z,49.50
2018-06-09T13:57:46.030Z,49.50
2018-06-09T14:03:06.562Z,49.90
2018-06-09T14:05:36.658Z,49.70
2018-06-09T14:08:12.184Z,49.30
2018-06-09T14:10:42.330Z,48.80
2018-06-09T14:13:17.537Z,48.50
2018-06-09T14:15:57.420Z,48.70
2018-06-09T14:18:34.516Z,48.50
2018-06-09T14:21:07.867Z,48.60
2018-06-09T14:23:53.243Z,48.40
2018-06-09T14:26:29.601Z,48.40
2018-06-09T14:29:09.556Z,48.30
2018-06-09T14:31:45.652Z,47.30
2018-06-09T14:34:22.536Z,48.00
2018-06-09T14:36:55.934Z,48.30
2018-06-09T14:42:33.852Z,48.70
2018-06-09T14:45:17.414Z,47.70
2018-06-09T14:47:59.778Z,48.90
2018-06-09T14:50:42.105Z,48.40
2018-06-09T14:53:25.739Z,47.50
2018-06-09T14:55:59.916Z,47.90
2018-06-09T15:01:29.162Z,49.40
2018-06-09T15:04:10.239Z,48.20
2018-06-09T15:06:43.045Z,48.20
2018-06-09T15:09:34.693Z,47.50
2018-06-09T15:12:15.218Z,48.40
2018-06-09T15:14:48.305Z,46.70
2018-06-09T15:17:25.775Z,46.60
2018-06-09T15:20:01.727Z,48.30
2018-06-09T15:22:41.926Z,48.60
2018-06-09T15:25:32.626Z,49.50
2018-06-09T15:28:05.189Z,50.00
2018-06-09T15:30:40.072Z,49.90
2018-06-09T15:33:19.401Z,51.30
2018-06-09T15:35:51.334Z,51.20
2018-06-09T15:38:24.111Z,51.70
2018-06-09T15:40:55.669Z,51.00
2018-06-09T15:43:31.807Z,51.30
2018-06-09T15:46:20.387Z,52.10
2018-06-09T15:48:59.371Z,52.10
2018-06-09T15:51:33.861Z,51.90
2018-06-09T15:54:07.209Z,52.00
2018-06-09T15:56:46.166Z,51.40
2018-06-09T15:59:17.717Z,52.00
2018-06-09T16:01:55.312Z,51.40
2018-06-09T16:07:17.838Z,51.30
2018-06-09T16:09:51.784Z,52.40
2018-06-09T16:12:24.203Z,52.10
2018-06-09T16:15:12.922Z,52.30
2018-06-09T16:17:54.417Z,53.00
2018-06-09T16:20:46.231Z,55.00
2018-06-09T16:23:31.230Z,57.00
2018-06-09T16:26:10.257Z,58.70
2018-06-09T16:28:55.645Z,62.30
2018-06-09T16:31:33.458Z,73.40
2018-06-09T16:34:14.999Z,77.40
2018-06-09T16:36:50.240Z,81.80
2018-06-09T16:39:21.227Z,85.10
2018-06-09T16:41:55.064Z,82.30
2018-06-09T16:44:35.764Z,84.70
2018-06-09T16:47:07.017Z,87.60
2018-06-09T16:49:51.576Z,90.70
2018-06-09T16:52:26.711Z,90.80
2018-06-09T16:55:03.253Z,90.50
2018-06-09T16:57:55.591Z,91.10
2018-06-09T17:00:28.925Z,89.50
2018-06-09T17:03:06.242Z,88.50
2018-06-09T17:05:40.309Z,89.20
2018-06-09T17:08:17.113Z,88.50
2018-06-09T17:10:49.843Z,89.30
2018-06-09T17:13:26.633Z,86.80
2018-06-09T17:15:59.219Z,86.70
2018-06-09T17:18:32.601Z,87.50
2018-06-09T17:21:09.181Z,89.00
2018-06-09T17:23:45.257Z,88.30
2018-06-09T17:26:22.442Z,89.50
2018-06-09T17:28:57.159Z,89.20
2018-06-09T17:31:41.066Z,89.20
2018-06-09T17:34:31.048Z,90.10
2018-06-09T17:37:15.596Z,89.70
2018-06-09T17:39:55.145Z,86.70
2018-06-09T17:42:34.471Z,87.80
2018-06-09T17:45:11.576Z,87.30
2018-06-09T17:53:40.195Z,85.70
2018-06-09T17:58:56.948Z,85.00
2018-06-09T18:01:34.638Z,85.00
2018-06-09T18:04:12.362Z,83.30
2018-06-09T18:06:53.074Z,78.90
2018-06-09T18:09:34.511Z,81.00
2018-06-09T18:12:15.924Z,78.60
2018-06-09T18:14:54.374Z,78.80
2018-06-09T18:17:45.315Z,79.00
2018-06-09T18:20:31.229Z,80.80
2018-06-09T18:23:09.629Z,81.90
2018-06-09T18:25:40.807Z,82.10
2018-06-09T18:28:18.544Z,78.30
2018-06-09T18:30:51.850Z,78.60
2018-06-09T18:33:23.962Z,80.40
2018-06-09T18:35:56.446Z,79.40
2018-06-09T18:38:28.273Z,79.60
2018-06-09T18:41:04.030Z,79.60
2018-06-09T18:43:36.243Z,78.20
2018-06-09T18:46:08.066Z,78.90
2018-06-09T18:48:42.809Z,79.30
2018-06-09T18:51:13.433Z,80.50
2018-06-09T18:53:49.050Z,79.30
2018-06-09T18:56:22.655Z,77.60
2018-06-09T18:58:56.328Z,78.00
2018-06-09T19:01:29.857Z,79.20
2018-06-09T19:04:03.143Z,81.50
2018-06-09T19:06:45.842Z,81.90
2018-06-09T19:09:18.504Z,82.70
2018-06-09T19:14:42.466Z,82.50
2018-06-09T19:17:14.583Z,82.50
2018-06-09T19:19:49.172Z,82.20
2018-06-09T19:22:29.873Z,82.00
2018-06-09T19:25:01.476Z,81.20
2018-06-09T19:27:34.576Z,81.80
2018-06-09T19:30:23.791Z,81.30
2018-06-09T19:33:00.620Z,81.30
2018-06-09T19:35:38.353Z,80.60
2018-06-09T19:38:15.689Z,81.10
2018-06-09T19:40:48.554Z,82.20
2018-06-09T19:43:19.451Z,80.70
2018-06-09T19:45:54.327Z,80.30
2018-06-09T19:48:32.390Z,79.40
2018-06-09T19:51:04.778Z,81.10
2018-06-09T19:53:42.093Z,79.50
2018-06-09T19:56:15.974Z,78.50
2018-06-09T19:58:47.516Z,78.20
2018-06-09T20:01:23.623Z,79.00
2018-06-09T20:04:02.388Z,78.20
2018-06-09T20:06:33.978Z,79.00
2018-06-09T20:09:09.892Z,79.00
2018-06-09T20:11:46.012Z,79.30
2018-06-09T20:14:20.984Z,79.50
2018-06-09T20:16:54.821Z,80.30
2018-06-09T20:19:27.776Z,79.70
2018-06-09T20:21:59.727Z,81.10
2018-06-09T20:24:38.300Z,81.30
2018-06-09T20:27:18.388Z,80.70
2018-06-09T20:29:49.026Z,79.10
2018-06-09T20:32:26.764Z,79.10
2018-06-09T20:35:02.698Z,79.00
2018-06-09T20:37:36.451Z,78.20
2018-06-09T20:40:22.993Z,77.30
2018-06-09T20:43:03.981Z,79.70
2018-06-09T20:45:46.731Z,81.50
2018-06-09T20:48:30.469Z,82.20
2018-06-09T20:51:01.256Z,81.80
2018-06-09T20:53:32.890Z,81.00
2018-06-09T20:56:04.266Z,80.70
2018-06-09T20:58:46.327Z,81.20
2018-06-09T21:01:19.094Z,80.30
2018-06-09T21:06:42.645Z,83.70
2018-06-09T21:09:21.926Z,85.10
2018-06-09T21:11:58.078Z,85.90
2018-06-09T21:14:38.563Z,86.30
2018-06-09T21:17:16.097Z,87.80
2018-06-09T21:19:54.025Z,88.20
2018-06-09T21:22:25.293Z,89.30
2018-06-09T21:25:09.585Z,90.10
2018-06-09T21:27:45.944Z,90.20
2018-06-09T21:30:23.095Z,90.50
2018-06-09T21:33:09.524Z,90.70
2018-06-09T21:35:51.524Z,90.60
2018-06-09T21:38:29.191Z,90.80
2018-06-09T21:41:03.347Z,90.50
2018-06-09T21:43:48.991Z,90.20
2018-06-09T21:46:27.689Z,90.20
2018-06-09T21:48:58.298Z,90.30
2018-06-09T21:51:39.053Z,90.20
2018-06-09T21:54:11.032Z,89.60
2018-06-09T21:56:53.870Z,89.70
2018-06-09T21:59:24.464Z,90.10
2018-06-09T22:02:00.213Z,90.20
2018-06-09T22:04:35.323Z,90.60
2018-06-09T22:07:17.254Z,90.60
2018-06-09T22:09:56.896Z,88.60
2018-06-09T22:12:28.279Z,89.70
2018-06-09T22:14:59.398Z,89.90
2018-06-09T22:17:35.372Z,90.10
2018-06-09T22:20:14.996Z,90.30
2018-06-09T22:22:46.324Z,90.20
2018-06-09T22:25:27.687Z,90.50
2018-06-09T22:28:01.129Z,90.40
2018-06-09T22:30:34.750Z,89.80
2018-06-09T22:33:05.160Z,88.40
2018-06-09T22:35:36.851Z,87.80
2018-06-09T22:38:07.712Z,88.00
2018-06-09T22:40:45.041Z,87.70
2018-06-09T22:43:16.047Z,88.20
2018-06-09T22:45:48.694Z,88.40
2018-06-09T22:48:19.369Z,88.60
2018-06-09T22:50:49.999Z,88.70
2018-06-09T22:53:21.508Z,88.20
2018-06-09T22:55:52.266Z,88.20
2018-06-09T22:58:22.874Z,89.90
2018-06-09T23:00:53.598Z,90.20
2018-06-09T23:03:23.827Z,90.70
2018-06-09T23:05:58.191Z,90.80
2018-06-09T23:08:28.396Z,90.70
2018-06-09T23:10:59.007Z,90.70
2018-06-09T23:13:29.263Z,90.60
2018-06-09T23:15:59.792Z,90.50
2018-06-09T23:18:30.343Z,90.60
2018-06-09T23:21:00.513Z,91.30
2018-06-09T23:23:30.793Z,90.90
2018-06-09T23:26:01.144Z,90.80
2018-06-09T23:28:32.214Z,90.70
2018-06-09T23:31:08.078Z,90.60
2018-06-09T23:33:37.828Z,90.50
2018-06-09T23:36:07.677Z,90.70
2018-06-09T23:38:37.442Z,90.70
2018-06-09T23:41:07.599Z,90.90
2018-06-09T23:43:37.677Z,91.20
2018-06-09T23:46:08.185Z,90.90
2018-06-09T23:48:38.169Z,90.60
2018-06-09T23:51:10.067Z,90.60
2018-06-09T23:53:40.357Z,90.50
2018-06-09T23:56:10.593Z,90.20
2018-06-09T23:58:41.282Z,90.20
